createdAt,value
2018-07-12T00:01:34.328Z,99.90
2018-07-12T00:04:01.509Z,99.90
2018-07-12T00:06:28.696Z,99.90
2018-07-12T00:08:55.871Z,99.90
2018-07-12T00:11:23.091Z,99.90
2018-07-12T00:13:50.440Z,99.90
2018-07-12T00:16:17.868Z,99.90
2018-07-12T00:18:45.213Z,99.90
2018-07-12T00:21:12.427Z,99.90
2018-07-12T00:23:39.614Z,99.90
2018-07-12T00:26:06.796Z,99.90
2018-07-12T00:28:33.960Z,99.90
2018-07-12T00:31:01.139Z,99.90
2018-07-12T00:35:55.952Z,99.90
2018-07-12T00:38:23.723Z,99.90
2018-07-12T00:40:50.904Z,99.90
2018-07-12T00:43:18.088Z,99.90
2018-07-12T00:45:45.248Z,99.90
2018-07-12T00:48:12.419Z,99.90
2018-07-12T00:55:34.870Z,99.90
2018-07-12T00:58:02.056Z,99.90
2018-07-12T01:00:29.240Z,99.90
2018-07-12T01:02:56.418Z,99.90
2018-07-12T01:05:23.595Z,99.90
2018-07-12T01:07:50.744Z,99.90
2018-07-12T01:10:17.892Z,99.90
2018-07-12T01:15:12.715Z,99.90
2018-07-12T01:17:39.931Z,99.90
2018-07-12T01:20:07.103Z,99.90
2018-07-12T01:25:01.897Z,99.80
2018-07-12T01:27:29.075Z,99.90
2018-07-12T01:32:23.848Z,99.90
2018-07-12T01:34:51.065Z,99.90
2018-07-12T01:37:18.256Z,99.90
2018-07-12T01:39:45.423Z,99.90
2018-07-12T01:44:40.243Z,99.90
2018-07-12T01:47:07.436Z,99.90
2018-07-12T01:49:34.576Z,99.90
2018-07-12T01:52:01.815Z,99.90
2018-07-12T01:54:28.964Z,99.90
2018-07-12T01:56:56.152Z,99.90
2018-07-12T01:59:23.321Z,99.90
2018-07-12T02:01:50.496Z,99.90
2018-07-12T02:04:18.206Z,99.90
2018-07-12T02:06:45.571Z,99.90
2018-07-12T02:09:12.759Z,99.90
2018-07-12T02:11:39.931Z,99.90
2018-07-12T02:14:07.105Z,99.90
2018-07-12T02:16:34.292Z,99.90
2018-07-12T02:19:01.691Z,99.90
2018-07-12T02:21:28.863Z,99.90
2018-07-12T02:23:56.018Z,99.90
2018-07-12T02:26:23.195Z,99.90
2018-07-12T02:28:50.592Z,99.90
2018-07-12T02:31:17.743Z,99.90
2018-07-12T02:33:44.916Z,99.90
2018-07-12T02:36:12.113Z,99.90
2018-07-12T02:38:39.267Z,99.90
2018-07-12T02:41:06.415Z,99.90
2018-07-12T02:43:33.583Z,99.90
2018-07-12T02:46:00.772Z,99.90
2018-07-12T02:48:27.973Z,99.90
2018-07-12T02:50:55.155Z,99.90
2018-07-12T02:53:22.308Z,99.90
2018-07-12T02:55:49.472Z,99.90
2018-07-12T02:58:16.647Z,99.90
2018-07-12T03:00:43.832Z,99.90
2018-07-12T03:03:10.998Z,99.90
2018-07-12T03:05:38.155Z,99.90
2018-07-12T03:08:05.331Z,99.90
2018-07-12T03:10:32.490Z,99.90
2018-07-12T03:12:59.653Z,99.90
2018-07-12T03:15:26.835Z,99.90
2018-07-12T03:20:21.658Z,99.90
2018-07-12T03:22:48.797Z,99.70
2018-07-12T03:25:15.967Z,99.90
2018-07-12T03:27:43.130Z,99.90
2018-07-12T03:30:10.296Z,99.90
2018-07-12T03:32:37.457Z,99.90
2018-07-12T03:35:04.644Z,99.90
2018-07-12T03:39:59.447Z,99.90
2018-07-12T03:42:26.627Z,99.90
2018-07-12T03:44:53.811Z,99.90
2018-07-12T03:47:20.998Z,99.90
2018-07-12T03:49:48.173Z,99.90
2018-07-12T03:54:42.942Z,99.90
2018-07-12T03:57:10.126Z,99.90
2018-07-12T03:59:37.327Z,99.90
2018-07-12T04:02:04.564Z,99.90
2018-07-12T04:04:31.771Z,99.90
2018-07-12T04:09:26.571Z,99.90
2018-07-12T04:11:53.728Z,99.90
2018-07-12T04:14:20.891Z,99.90
2018-07-12T04:16:48.068Z,99.90
2018-07-12T04:19:15.228Z,99.90
2018-07-12T04:21:42.396Z,99.90
2018-07-12T04:24:09.576Z,99.90
2018-07-12T04:26:36.740Z,99.90
2018-07-12T04:31:31.539Z,99.60
2018-07-12T04:33:58.719Z,99.90
2018-07-12T04:36:25.919Z,99.90
2018-07-12T04:38:53.083Z,99.90
2018-07-12T04:41:20.263Z,99.90
2018-07-12T04:43:47.456Z,99.70
2018-07-12T04:46:14.685Z,99.90
2018-07-12T04:48:41.868Z,99.90
2018-07-12T04:51:09.109Z,99.90
2018-07-12T04:53:36.284Z,99.90
2018-07-12T04:56:03.782Z,99.80
2018-07-12T04:58:31.041Z,99.90
2018-07-12T05:00:59.408Z,99.70
2018-07-12T05:03:26.731Z,99.90
2018-07-12T05:05:53.903Z,99.90
2018-07-12T05:08:21.076Z,99.90
2018-07-12T05:10:48.243Z,99.90
2018-07-12T05:13:15.387Z,99.90
2018-07-12T05:15:42.559Z,99.90
2018-07-12T05:18:09.692Z,99.90
2018-07-12T05:20:36.884Z,99.90
2018-07-12T05:23:04.103Z,99.90
2018-07-12T05:28:00.369Z,99.90
2018-07-12T05:30:27.842Z,99.90
2018-07-12T05:32:55.267Z,99.90
2018-07-12T05:37:52.157Z,99.90
2018-07-12T05:40:21.020Z,99.90
2018-07-12T05:42:50.006Z,99.90
2018-07-12T05:45:18.895Z,99.90
2018-07-12T05:47:47.748Z,99.90
2018-07-12T05:50:16.630Z,99.70
2018-07-12T05:55:14.269Z,99.70
2018-07-12T05:57:43.184Z,99.70
2018-07-12T06:00:12.063Z,99.80
2018-07-12T06:02:40.925Z,99.20
2018-07-12T06:05:09.803Z,98.90
2018-07-12T06:07:38.692Z,99.20
2018-07-12T06:10:07.584Z,99.20
2018-07-12T06:12:36.428Z,99.20
2018-07-12T06:17:34.112Z,99.30
2018-07-12T06:22:32.382Z,99.30
2018-07-12T06:25:02.043Z,99.50
2018-07-12T06:27:31.032Z,99.20
2018-07-12T06:29:59.916Z,98.90
2018-07-12T06:32:28.823Z,99.30
2018-07-12T06:34:57.692Z,99.70
2018-07-12T06:37:26.579Z,99.80
2018-07-12T06:39:55.441Z,99.30
2018-07-12T06:42:24.311Z,99.90
2018-07-12T06:44:53.208Z,99.90
2018-07-12T06:47:22.079Z,99.90
2018-07-12T06:49:51.553Z,99.90
2018-07-12T06:52:20.527Z,99.90
2018-07-12T06:54:49.374Z,99.90
2018-07-12T06:57:18.264Z,99.80
2018-07-12T06:59:47.133Z,99.90
2018-07-12T07:02:16.012Z,99.90
2018-07-12T07:04:45.592Z,99.90
2018-07-12T07:09:43.264Z,99.90
2018-07-12T07:12:12.142Z,99.90
2018-07-12T07:14:40.999Z,99.90
2018-07-12T07:17:09.960Z,99.90
2018-07-12T07:19:38.823Z,99.90
2018-07-12T07:22:07.724Z,99.90
2018-07-12T07:24:36.603Z,99.90
2018-07-12T07:27:05.592Z,99.90
2018-07-12T07:29:34.460Z,99.90
2018-07-12T07:32:03.311Z,99.90
2018-07-12T07:34:32.217Z,99.70
2018-07-12T07:37:01.093Z,99.50
2018-07-12T07:39:29.950Z,98.50
2018-07-12T07:41:58.843Z,98.80
2018-07-12T07:44:27.719Z,99.20
2018-07-12T07:46:56.800Z,99.50
2018-07-12T07:49:25.770Z,99.50
2018-07-12T07:51:54.567Z,99.80
2018-07-12T07:54:23.426Z,99.80
2018-07-12T07:56:52.348Z,99.90
2018-07-12T07:59:21.234Z,99.80
2018-07-12T08:01:50.064Z,99.50
2018-07-12T08:04:18.959Z,99.60
2018-07-12T08:06:47.843Z,99.50
2018-07-12T08:09:17.123Z,99.20
2018-07-12T08:11:46.033Z,99.10
2018-07-12T08:14:15.451Z,99.10
2018-07-12T08:16:45.364Z,99.20
2018-07-12T08:19:14.379Z,99.40
2018-07-12T08:21:43.264Z,98.90
2018-07-12T08:24:12.095Z,98.80
2018-07-12T08:26:40.959Z,99.00
2018-07-12T08:29:09.840Z,98.80
2018-07-12T08:31:38.685Z,98.50
2018-07-12T08:34:07.585Z,98.70
2018-07-12T08:36:36.475Z,98.90
2018-07-12T08:39:06.604Z,98.60
2018-07-12T08:41:35.536Z,98.40
2018-07-12T08:44:04.824Z,98.10
2018-07-12T08:46:33.756Z,97.50
2018-07-12T08:49:02.639Z,97.70
2018-07-12T08:51:31.492Z,97.40
2018-07-12T08:54:00.368Z,97.30
2018-07-12T08:56:29.240Z,95.60
2018-07-12T08:58:58.106Z,94.90
2018-07-12T09:01:26.963Z,95.20
2018-07-12T09:03:56.106Z,95.80
2018-07-12T09:06:24.992Z,96.40
2018-07-12T09:08:54.076Z,95.40
2018-07-12T09:11:22.929Z,95.10
2018-07-12T09:13:51.804Z,95.10
2018-07-12T09:16:20.700Z,94.60
2018-07-12T09:18:49.575Z,95.10
2018-07-12T09:21:18.415Z,95.30
2018-07-12T09:23:47.256Z,96.80
2018-07-12T09:26:16.215Z,97.30
2018-07-12T09:28:45.319Z,97.60
2018-07-12T09:31:14.219Z,97.60
2018-07-12T09:33:43.440Z,99.00
2018-07-12T09:38:45.527Z,96.90
2018-07-12T09:41:14.470Z,97.10
2018-07-12T09:43:44.291Z,96.40
2018-07-12T09:46:13.296Z,94.80
2018-07-12T09:48:43.508Z,95.40
2018-07-12T09:51:13.116Z,95.10
2018-07-12T09:53:46.120Z,94.30
2018-07-12T09:56:15.096Z,94.60
2018-07-12T09:58:43.859Z,95.50
2018-07-12T10:01:18.446Z,95.60
2018-07-12T10:03:52.972Z,95.20
2018-07-12T10:06:27.561Z,92.40
2018-07-12T10:08:59.208Z,93.40
2018-07-12T10:11:33.715Z,94.70
2018-07-12T10:14:08.071Z,95.50
2018-07-12T10:19:11.355Z,93.60
2018-07-12T10:21:40.192Z,94.10
2018-07-12T10:24:09.061Z,92.60
2018-07-12T10:26:37.929Z,92.70
2018-07-12T10:29:06.799Z,93.10
2018-07-12T10:31:35.632Z,92.50
2018-07-12T10:34:04.507Z,94.40
2018-07-12T10:36:33.394Z,92.90
2018-07-12T10:39:02.403Z,91.50
2018-07-12T10:41:31.266Z,91.60
2018-07-12T10:44:00.180Z,92.20
2018-07-12T10:46:29.056Z,91.10
2018-07-12T10:48:58.029Z,92.80
2018-07-12T10:51:26.900Z,92.00
2018-07-12T10:53:55.847Z,94.20
2018-07-12T10:56:24.739Z,90.10
2018-07-12T10:58:53.648Z,90.30
2018-07-12T11:03:51.381Z,85.80
2018-07-12T11:06:20.316Z,87.10
2018-07-12T11:08:49.168Z,89.00
2018-07-12T11:11:18.105Z,89.70
2018-07-12T11:13:51.356Z,89.80
2018-07-12T11:16:20.310Z,87.40
2018-07-12T11:18:49.465Z,87.60
2018-07-12T11:21:18.397Z,85.90
2018-07-12T11:23:47.214Z,86.00
2018-07-12T11:26:16.072Z,86.60
2018-07-12T11:28:45.049Z,85.40
2018-07-12T11:31:13.920Z,85.80
2018-07-12T11:33:45.888Z,87.90
2018-07-12T11:36:14.826Z,88.70
2018-07-12T11:38:44.147Z,86.50
2018-07-12T11:41:13.240Z,86.00
2018-07-12T11:43:42.091Z,85.60
2018-07-12T11:46:12.264Z,84.50
2018-07-12T11:48:41.867Z,86.80
2018-07-12T11:51:10.800Z,88.50
2018-07-12T11:53:39.680Z,88.40
2018-07-12T11:56:08.609Z,90.20
2018-07-12T11:58:37.484Z,88.70
2018-07-12T12:01:06.348Z,87.50
2018-07-12T12:03:35.221Z,87.70
2018-07-12T12:06:04.149Z,87.30
2018-07-12T12:08:33.029Z,83.90
2018-07-12T12:11:01.900Z,88.00
2018-07-12T12:13:30.724Z,83.90
2018-07-12T12:15:59.605Z,86.80
2018-07-12T12:18:28.439Z,85.20
2018-07-12T12:20:57.263Z,88.40
2018-07-12T12:23:26.130Z,85.60
2018-07-12T12:25:55.033Z,84.40
2018-07-12T12:28:23.892Z,82.40
2018-07-12T12:30:52.723Z,86.30
2018-07-12T12:33:21.579Z,83.30
2018-07-12T12:35:50.426Z,84.00
2018-07-12T12:38:19.272Z,84.10
2018-07-12T12:40:48.153Z,83.80
2018-07-12T12:43:16.979Z,84.70
2018-07-12T12:45:45.857Z,80.20
2018-07-12T12:48:14.697Z,80.40
2018-07-12T12:50:43.563Z,81.50
2018-07-12T12:53:12.419Z,80.60
2018-07-12T12:55:41.302Z,77.70
2018-07-12T12:58:10.184Z,78.50
2018-07-12T13:00:39.054Z,76.00
2018-07-12T13:03:07.986Z,76.70
2018-07-12T13:05:36.856Z,74.80
2018-07-12T13:08:05.807Z,75.90
2018-07-12T13:10:34.644Z,75.80
2018-07-12T13:13:03.593Z,73.70
2018-07-12T13:15:32.496Z,73.30
2018-07-12T13:18:01.412Z,72.80
2018-07-12T13:20:30.251Z,71.20
2018-07-12T13:25:27.993Z,67.30
2018-07-12T13:27:56.846Z,72.10
2018-07-12T13:32:54.378Z,65.90
2018-07-12T13:35:23.254Z,69.10
2018-07-12T13:37:52.132Z,70.40
2018-07-12T13:40:21.147Z,67.20
2018-07-12T13:42:50.048Z,63.40
2018-07-12T13:45:18.970Z,68.50
2018-07-12T13:47:47.849Z,63.90
2018-07-12T13:50:16.687Z,63.10
2018-07-12T13:52:45.569Z,63.30
2018-07-12T13:55:14.556Z,66.70
2018-07-12T13:57:43.451Z,65.10
2018-07-12T14:00:12.320Z,68.70
2018-07-12T14:02:41.206Z,66.00
2018-07-12T14:05:10.092Z,66.70
2018-07-12T14:07:38.980Z,68.80
2018-07-12T14:10:08.020Z,66.30
2018-07-12T14:12:36.897Z,67.20
2018-07-12T14:15:06.488Z,64.80
2018-07-12T14:17:35.425Z,62.50
2018-07-12T14:20:04.397Z,63.60
2018-07-12T14:22:33.283Z,62.40
2018-07-12T14:25:02.140Z,64.10
2018-07-12T14:27:31.480Z,62.20
2018-07-12T14:30:00.351Z,62.80
2018-07-12T14:32:29.217Z,65.10
2018-07-12T14:37:26.833Z,61.60
2018-07-12T14:39:55.686Z,59.80
2018-07-12T14:42:24.540Z,61.40
2018-07-12T14:44:53.357Z,63.10
2018-07-12T14:49:50.960Z,61.50
2018-07-12T14:52:19.800Z,62.30
2018-07-12T14:54:48.672Z,64.80
2018-07-12T14:57:17.503Z,64.60
2018-07-12T14:59:46.363Z,65.80
2018-07-12T15:02:15.220Z,68.20
2018-07-12T15:04:44.347Z,66.90
2018-07-12T15:07:13.268Z,67.30
2018-07-12T15:09:42.186Z,67.70
2018-07-12T15:12:11.102Z,68.20
2018-07-12T15:14:39.972Z,67.40
2018-07-12T15:17:08.864Z,66.60
2018-07-12T15:19:37.799Z,67.50
2018-07-12T15:22:06.689Z,66.80
2018-07-12T15:24:35.521Z,67.50
2018-07-12T15:27:04.427Z,68.70
2018-07-12T15:29:33.365Z,69.30
2018-07-12T15:32:02.225Z,70.30
2018-07-12T15:34:31.082Z,69.50
2018-07-12T15:37:00.006Z,71.20
2018-07-12T15:39:28.857Z,71.40
2018-07-12T15:41:57.735Z,72.40
2018-07-12T15:44:26.540Z,73.00
2018-07-12T15:46:55.403Z,74.00
2018-07-12T15:49:24.263Z,71.90
2018-07-12T15:51:53.197Z,73.80
2018-07-12T15:54:22.072Z,75.90
2018-07-12T15:56:50.931Z,77.60
2018-07-12T15:59:19.775Z,78.00
2018-07-12T16:04:17.415Z,81.30
2018-07-12T16:06:46.272Z,78.70
2018-07-12T16:09:15.140Z,78.00
2018-07-12T16:11:43.971Z,79.60
2018-07-12T16:14:12.883Z,80.80
2018-07-12T16:16:41.764Z,81.50
2018-07-12T16:19:10.615Z,81.60
2018-07-12T16:21:39.468Z,81.10
2018-07-12T16:24:08.319Z,81.50
2018-07-12T16:26:37.192Z,81.60
2018-07-12T16:29:06.064Z,82.20
2018-07-12T16:31:34.908Z,83.00
2018-07-12T16:34:03.830Z,83.20
2018-07-12T16:36:32.664Z,82.90
2018-07-12T16:39:01.550Z,84.00
2018-07-12T16:41:30.471Z,82.50
2018-07-12T16:43:59.510Z,83.00
2018-07-12T16:46:28.714Z,83.20
2018-07-12T16:48:57.555Z,84.20
2018-07-12T16:51:26.452Z,84.00
2018-07-12T16:53:55.392Z,83.80
2018-07-12T16:56:24.277Z,83.20
2018-07-12T16:58:53.167Z,83.10
2018-07-12T17:01:22.139Z,84.50
2018-07-12T17:03:51.043Z,82.90
2018-07-12T17:06:19.971Z,83.00
2018-07-12T17:08:48.866Z,83.70
2018-07-12T17:11:17.780Z,85.10
2018-07-12T17:13:46.668Z,85.20
2018-07-12T17:16:15.582Z,84.10
2018-07-12T17:18:44.921Z,83.80
2018-07-12T17:21:13.903Z,83.90
2018-07-12T17:23:43.221Z,84.20
2018-07-12T17:26:12.091Z,84.30
2018-07-12T17:28:40.915Z,85.90
2018-07-12T17:31:09.852Z,84.60
2018-07-12T17:36:07.460Z,86.10
2018-07-12T17:38:36.341Z,87.20
2018-07-12T17:41:05.244Z,85.80
2018-07-12T17:43:34.086Z,85.90
2018-07-12T17:46:02.948Z,85.70
2018-07-12T17:48:31.872Z,85.20
2018-07-12T17:51:00.698Z,85.50
2018-07-12T17:53:29.560Z,85.70
2018-07-12T17:58:27.202Z,86.20
2018-07-12T18:00:56.127Z,87.30
2018-07-12T18:03:25.013Z,88.20
2018-07-12T18:05:54.185Z,88.70
2018-07-12T18:08:23.067Z,89.30
2018-07-12T18:10:51.983Z,89.60
2018-07-12T18:13:20.878Z,90.50
2018-07-12T18:15:49.745Z,90.20
2018-07-12T18:18:18.623Z,90.40
2018-07-12T18:20:48.008Z,90.80
2018-07-12T18:23:16.878Z,90.80
2018-07-12T18:25:45.777Z,90.80
2018-07-12T18:28:14.702Z,90.80
2018-07-12T18:30:43.672Z,90.90
2018-07-12T18:33:12.648Z,90.90
2018-07-12T18:35:41.543Z,90.90
2018-07-12T18:38:10.523Z,91.50
2018-07-12T18:40:39.408Z,92.00
2018-07-12T18:43:08.324Z,92.20
2018-07-12T18:45:37.191Z,92.30
2018-07-12T18:48:06.102Z,92.60
2018-07-12T18:50:35.028Z,92.80
2018-07-12T18:53:03.983Z,93.10
2018-07-12T18:55:32.951Z,93.10
2018-07-12T18:58:01.881Z,93.30
2018-07-12T19:00:30.908Z,93.20
2018-07-12T19:03:00.748Z,93.40
2018-07-12T19:07:58.410Z,93.50
2018-07-12T19:10:27.311Z,93.30
2018-07-12T19:12:56.239Z,93.50
2018-07-12T19:15:25.216Z,93.80
2018-07-12T19:20:23.171Z,94.10
2018-07-12T19:22:52.134Z,94.00
2018-07-12T19:25:21.027Z,94.20
2018-07-12T19:27:51.289Z,94.20
2018-07-12T19:30:20.280Z,94.30
2018-07-12T19:32:49.141Z,94.50
2018-07-12T19:35:18.112Z,94.60
2018-07-12T19:37:46.994Z,94.50
2018-07-12T19:40:15.868Z,94.60
2018-07-12T19:42:45.173Z,94.70
2018-07-12T19:47:43.173Z,94.80
2018-07-12T19:50:12.077Z,95.10
2018-07-12T19:52:41.600Z,94.80
2018-07-12T19:55:10.519Z,95.00
2018-07-12T19:57:39.461Z,94.90
2018-07-12T20:00:09.253Z,95.30
2018-07-12T20:02:38.140Z,95.20
2018-07-12T20:05:07.318Z,95.20
2018-07-12T20:07:36.955Z,95.30
2018-07-12T20:10:06.598Z,95.40
2018-07-12T20:15:04.888Z,95.40
2018-07-12T20:17:48.453Z,95.60
2018-07-12T20:20:17.870Z,95.80
2018-07-12T20:22:46.823Z,95.70
2018-07-12T20:25:15.796Z,95.80
2018-07-12T20:27:44.702Z,95.80
2018-07-12T20:30:15.895Z,95.70
2018-07-12T20:32:45.053Z,95.80
2018-07-12T20:35:14.548Z,96.00
2018-07-12T20:37:43.706Z,96.10
2018-07-12T20:40:13.329Z,96.00
2018-07-12T20:42:42.259Z,96.10
2018-07-12T20:45:12.172Z,96.30
2018-07-12T20:47:41.931Z,96.50
2018-07-12T20:50:10.976Z,96.60
2018-07-12T20:52:39.861Z,96.80
2018-07-12T20:55:08.813Z,96.80
2018-07-12T20:57:38.280Z,96.80
2018-07-12T21:00:07.231Z,96.70
2018-07-12T21:02:36.909Z,96.60
2018-07-12T21:07:34.584Z,96.80
2018-07-12T21:10:03.492Z,96.80
2018-07-12T21:12:32.364Z,97.00
2018-07-12T21:15:01.780Z,97.00
2018-07-12T21:17:31.495Z,97.20
2018-07-12T21:20:00.423Z,97.20
2018-07-12T21:22:29.904Z,97.20
2018-07-12T21:27:28.388Z,97.20
2018-07-12T21:29:57.548Z,97.40
2018-07-12T21:32:26.863Z,97.80
2018-07-12T21:37:25.081Z,97.30
2018-07-12T21:39:54.588Z,97.30
2018-07-12T21:42:23.484Z,97.30
2018-07-12T21:44:52.610Z,97.70
2018-07-12T21:47:21.460Z,97.30
2018-07-12T21:49:50.341Z,97.40
2018-07-12T21:52:19.477Z,97.30
2018-07-12T21:54:49.167Z,97.30
2018-07-12T21:57:18.410Z,97.40
2018-07-12T21:59:47.234Z,97.40
2018-07-12T22:02:16.454Z,97.50
2018-07-12T22:04:45.323Z,97.50
2018-07-12T22:08:24.513Z,97.30
2018-07-12T22:10:54.714Z,97.30
2018-07-12T22:13:24.255Z,97.40
2018-07-12T22:15:53.149Z,97.40
2018-07-12T22:20:50.982Z,97.60
2018-07-12T22:23:19.855Z,97.70
2018-07-12T22:25:48.743Z,97.70
2018-07-12T22:28:17.640Z,97.70
2018-07-12T22:30:46.470Z,97.90
2018-07-12T22:33:15.332Z,97.60
2018-07-12T22:35:44.216Z,97.80
2018-07-12T22:38:13.103Z,97.90
2018-07-12T22:40:41.965Z,97.80
2018-07-12T22:43:10.872Z,97.80
2018-07-12T22:45:39.748Z,97.80
2018-07-12T22:48:08.689Z,97.90
2018-07-12T22:55:35.026Z,98.00
2018-07-12T22:58:03.919Z,98.10
2018-07-12T23:00:32.817Z,98.00
2018-07-12T23:03:01.739Z,97.90
2018-07-12T23:05:30.612Z,97.90
2018-07-12T23:07:59.472Z,98.00
2018-07-12T23:10:28.340Z,98.00
2018-07-12T23:12:57.211Z,97.90
2018-07-12T23:17:54.861Z,98.10
2018-07-12T23:20:23.731Z,98.20
2018-07-12T23:25:22.604Z,98.20
2018-07-12T23:30:20.236Z,98.20
2018-07-12T23:32:49.092Z,98.30
2018-07-12T23:35:17.935Z,98.30
2018-07-12T23:37:46.819Z,98.30
2018-07-12T23:40:15.683Z,98.20
2018-07-12T23:42:44.539Z,98.30
2018-07-12T23:45:13.423Z,98.30
2018-07-12T23:47:42.231Z,98.40
2018-07-12T23:50:11.087Z,98.20
2018-07-12T23:52:39.963Z,98.20
2018-07-12T23:55:08.879Z,98.20
2018-07-12T23:57:37.736Z,98.20
